Time;durP1;ratioP1;P1;durP2;ratioP2;P2;SDS_P1;SDS_P2;PMS_P1;PMS_P2;Temp;Humidity;BMP_temperature;BMP_pressure;BME280_temperature;BME280_humidity;BME280_pressure;Samples;Min_cycle;Max_cycle;Signal;HPM_P1;HPM_P2
2023/07/01 00:01:22;;;;;;;6.35;2.78;;;18.90;99.90;;;;;;5091517;28;20625;-50
2023/07/01 00:03:48;;;;;;;2.92;2.40;;;19.00;99.90;;;;;;5091538;28;20165;-50
2023/07/01 00:06:14;;;;;;;3.08;2.20;;;18.90;99.90;;;;;;5091537;28;20251;-50
2023/07/01 00:08:40;;;;;;;4.38;2.28;;;18.90;99.90;;;;;;5092203;28;20176;-50
2023/07/01 00:11:06;;;;;;;3.67;2.45;;;20.80;99.90;;;;;;5091706;28;20217;-50
2023/07/01 00:13:33;;;;;;;8.00;2.53;;;18.80;99.90;;;;;;5091366;28;20205;-50
2023/07/01 00:15:58;;;;;;;4.80;2.47;;;18.90;99.90;;;;;;5091451;28;20161;-50
2023/07/01 00:18:24;;;;;;;5.65;2.80;;;18.90;99.90;;;;;;5091415;28;20215;-50
2023/07/01 00:20:50;;;;;;;3.70;2.20;;;18.80;99.90;;;;;;5091703;28;20173;-50
2023/07/01 00:23:16;;;;;;;4.28;2.47;;;18.80;99.90;;;;;;5091703;28;20169;-49
2023/07/01 00:25:42;;;;;;;7.38;2.72;;;18.80;99.90;;;;;;5091356;28;20587;-49
2023/07/01 00:28:07;;;;;;;4.00;2.38;;;18.70;99.90;;;;;;5091707;28;20169;-50
2023/07/01 00:30:33;;;;;;;4.20;2.63;;;18.70;99.90;;;;;;5093270;28;20173;-50
2023/07/01 00:33:00;;;;;;;4.70;2.38;;;18.80;99.90;;;;;;5095212;28;20248;-50
2023/07/01 00:35:25;;;;;;;4.43;2.65;;;18.80;99.90;;;;;;5095184;28;20652;-50
2023/07/01 00:37:51;;;;;;;5.45;2.60;;;18.80;99.90;;;;;;5095441;28;20173;-50
2023/07/01 00:40:16;;;;;;;4.22;2.60;;;18.80;99.90;;;;;;5095113;28;20192;-50
2023/07/01 00:42:44;;;;;;;4.43;2.67;;;18.80;99.90;;;;;;5095140;28;20173;-50
2023/07/01 00:45:10;;;;;;;4.38;2.55;;;18.90;99.90;;;;;;5095335;28;20169;-48
2023/07/01 00:47:37;;;;;;;3.20;2.50;;;18.90;99.90;;;;;;5095661;28;20687;-51
2023/07/01 00:50:03;;;;;;;2.63;2.42;;;18.80;99.90;;;;;;5095064;28;20166;-50
2023/07/01 00:52:30;;;;;;;3.65;2.25;;;18.80;99.90;;;;;;5095242;28;20174;-50
2023/07/01 00:54:56;;;;;;;5.85;2.65;;;18.80;99.90;;;;;;5094796;28;20568;-50
2023/07/01 00:57:21;;;;;;;3.20;2.40;;;18.70;99.90;;;;;;5094879;28;20169;-50
2023/07/01 00:59:47;;;;;;;4.57;2.83;;;18.80;99.90;;;;;;5094828;28;20169;-50
2023/07/01 01:02:24;;;;;;;10.27;2.50;;;18.90;99.90;;;;;;5094796;28;20639;-50
2023/07/01 01:05:02;;;;;;;4.72;2.70;;;18.80;99.90;;;;;;5094755;28;20204;-50
2023/07/01 01:07:36;;;;;;;4.65;2.25;;;18.80;99.90;;;;;;5094646;28;20536;-50
2023/07/01 01:10:09;;;;;;;3.25;2.65;;;18.90;99.90;;;;;;5094473;28;20270;-50
2023/07/01 01:12:37;;;;;;;4.80;2.60;;;18.80;99.90;;;;;;5094538;28;20203;-50
2023/07/01 01:15:03;;;;;;;6.53;2.75;;;18.80;99.90;;;;;;5094368;28;20656;-50
2023/07/01 01:17:34;;;;;;;5.78;2.85;;;18.70;99.90;;;;;;5094419;28;20168;-50
2023/07/01 01:20:22;;;;;;;4.55;2.85;;;18.70;99.90;;;;;;5094381;28;20651;-50
2023/07/01 01:23:00;;;;;;;4.30;2.90;;;18.70;99.90;;;;;;5094428;28;20629;-50
2023/07/01 01:25:42;;;;;;;3.78;2.92;;;18.70;99.90;;;;;;5094528;28;20173;-50
2023/07/01 01:28:09;;;;;;;4.72;2.40;;;18.70;99.90;;;;;;5094835;28;20193;-50
2023/07/01 01:30:35;;;;;;;7.10;3.13;;;18.60;99.90;;;;;;5094671;28;20173;-50
2023/07/01 01:33:01;;;;;;;4.57;2.78;;;18.60;99.90;;;;;;5094157;28;20165;-50
2023/07/01 01:35:27;;;;;;;7.15;2.80;;;18.70;99.90;;;;;;5094398;28;20177;-50
2023/07/01 01:38:17;;;;;;;6.90;2.80;;;18.60;99.90;;;;;;5094078;28;20157;-50
2023/07/01 01:40:50;;;;;;;5.95;2.80;;;18.70;99.90;;;;;;5094169;28;20180;-50
2023/07/01 01:43:24;;;;;;;4.82;2.83;;;18.60;99.90;;;;;;5093936;28;20162;-50
2023/07/01 01:45:50;;;;;;;6.72;3.42;;;18.70;99.90;;;;;;5093930;28;20228;-50
2023/07/01 01:48:16;;;;;;;8.35;2.72;;;18.70;99.90;;;;;;5093977;28;20225;-50
2023/07/01 01:50:46;;;;;;;8.00;2.97;;;18.70;99.90;;;;;;5075795;28;20264;-49
2023/07/01 01:53:12;;;;;;;3.75;2.92;;;18.70;99.90;;;;;;5075591;28;20641;-49
2023/07/01 01:55:38;;;;;;;6.10;3.55;;;18.80;99.90;;;;;;5094337;28;20177;-49
2023/07/01 01:58:04;;;;;;;6.38;2.92;;;18.70;99.90;;;;;;5093786;28;20169;-49
2023/07/01 02:00:32;;;;;;;5.18;3.03;;;18.70;99.90;;;;;;5093733;28;20166;-49
2023/07/01 02:02:58;;;;;;;4.93;2.85;;;18.70;99.90;;;;;;5093816;28;20173;-50
2023/07/01 02:05:23;;;;;;;7.22;3.20;;;18.70;99.90;;;;;;5093536;28;20617;-49
2023/07/01 02:07:49;;;;;;;10.80;3.70;;;18.60;99.90;;;;;;5093499;28;20191;-48
2023/07/01 02:10:14;;;;;;;8.05;3.30;;;18.70;99.90;;;;;;5093188;28;20278;-49
2023/07/01 02:12:40;;;;;;;7.85;3.80;;;18.70;99.90;;;;;;5093411;28;20525;-48
2023/07/01 02:15:06;;;;;;;7.75;3.33;;;18.80;99.90;;;;;;5093742;28;20262;-49
2023/07/01 02:17:32;;;;;;;10.88;3.45;;;18.80;99.90;;;;;;5093166;28;20651;-48
2023/07/01 02:19:57;;;;;;;7.43;3.58;;;18.70;99.90;;;;;;5093262;28;20170;-49
2023/07/01 02:22:23;;;;;;;5.82;3.30;;;18.80;99.90;;;;;;5093185;28;20165;-49
2023/07/01 02:24:48;;;;;;;9.68;3.50;;;18.80;99.90;;;;;;5093147;28;20170;-49
2023/07/01 02:27:14;;;;;;;9.20;3.60;;;18.70;99.90;;;;;;5093047;28;20162;-49
2023/07/01 02:29:39;;;;;;;6.63;2.90;;;18.70;99.90;;;;;;5093384;28;20179;-48
2023/07/01 02:32:06;;;;;;;10.75;3.33;;;18.70;99.90;;;;;;5093386;28;20173;-50
2023/07/01 02:34:32;;;;;;;6.28;3.53;;;18.70;99.90;;;;;;5093184;28;20563;-49
2023/07/01 02:36:57;;;;;;;9.70;3.38;;;18.70;99.90;;;;;;5093002;28;20170;-49
2023/07/01 02:39:23;;;;;;;9.80;3.30;;;18.80;99.90;;;;;;5092902;28;20169;-49
2023/07/01 02:41:48;;;;;;;6.63;3.78;;;18.70;99.90;;;;;;5092914;28;20161;-49
2023/07/01 02:44:14;;;;;;;11.73;3.58;;;18.70;99.90;;;;;;5093045;28;20177;-48
2023/07/01 02:46:40;;;;;;;11.75;3.60;;;18.80;99.90;;;;;;5092781;28;20167;-49
2023/07/01 02:49:05;;;;;;;13.98;3.70;;;18.80;99.90;;;;;;5093040;28;20260;-48
2023/07/01 02:51:31;;;;;;;5.45;2.90;;;18.80;99.90;;;;;;5092644;28;20193;-50
2023/07/01 02:53:56;;;;;;;9.85;3.58;;;18.80;99.90;;;;;;5091982;28;20598;-48
2023/07/01 02:56:22;;;;;;;7.93;3.15;;;18.80;99.90;;;;;;5092711;28;20529;-48
2023/07/01 02:58:47;;;;;;;12.13;4.07;;;18.80;99.90;;;;;;5092532;28;20285;-48
2023/07/01 03:01:13;;;;;;;9.02;3.95;;;18.80;99.90;;;;;;5092713;28;20169;-49
2023/07/01 03:03:39;;;;;;;13.00;4.05;;;18.70;99.90;;;;;;5092934;28;20161;-50
2023/07/01 03:06:05;;;;;;;11.98;4.18;;;18.70;99.90;;;;;;5092723;28;20180;-50
2023/07/01 03:08:30;;;;;;;9.75;4.28;;;18.80;99.90;;;;;;5092349;28;20188;-50
2023/07/01 03:10:56;;;;;;;17.75;4.18;;;18.90;99.90;;;;;;5092231;28;20253;-49
2023/07/01 03:13:21;;;;;;;7.10;3.63;;;18.80;99.90;;;;;;5100289;28;20651;-49
2023/07/01 03:15:47;;;;;;;5.10;3.20;;;18.70;99.90;;;;;;5112602;28;20169;-49
2023/07/01 03:18:13;;;;;;;9.60;3.95;;;18.80;99.90;;;;;;5112782;28;20176;-49
2023/07/01 03:20:38;;;;;;;9.60;3.60;;;18.80;99.90;;;;;;5112947;28;20169;-50
2023/07/01 03:23:04;;;;;;;9.40;3.65;;;19.20;99.90;;;;;;5112782;28;20165;-50
2023/07/01 03:25:31;;;;;;;6.75;3.47;;;18.80;99.90;;;;;;5112480;28;20621;-50
2023/07/01 03:27:56;;;;;;;9.52;3.53;;;18.70;99.90;;;;;;5112334;28;20157;-50
2023/07/01 03:30:28;;;;;;;8.18;3.63;;;18.80;99.90;;;;;;5112370;28;20160;-50
2023/07/01 03:32:54;;;;;;;7.63;4.38;;;18.80;99.90;;;;;;5094054;28;20167;-50
2023/07/01 03:35:20;;;;;;;8.90;3.15;;;18.70;99.90;;;;;;5112243;28;20212;-49
2023/07/01 03:37:46;;;;;;;8.13;3.72;;;18.70;99.90;;;;;;5094011;28;20172;-49
2023/07/01 03:40:12;;;;;;;9.25;3.33;;;18.70;99.90;;;;;;5112240;28;20196;-50
2023/07/01 03:42:40;;;;;;;6.95;3.70;;;18.70;99.90;;;;;;5112820;28;20616;-50
2023/07/01 03:45:08;;;;;;;7.70;4.07;;;18.60;99.90;;;;;;5112617;28;20167;-49
2023/07/01 03:47:43;;;;;;;8.02;3.78;;;18.70;99.90;;;;;;5112711;28;20624;-49
2023/07/01 03:50:09;;;;;;;7.45;3.28;;;18.70;99.90;;;;;;5112736;28;20208;-50
2023/07/01 03:52:36;;;;;;;9.18;3.83;;;18.70;99.90;;;;;;5112483;28;20655;-49
2023/07/01 03:55:06;;;;;;;11.05;3.42;;;18.70;99.90;;;;;;5112095;28;20212;-50
2023/07/01 03:57:35;;;;;;;6.78;3.47;;;18.70;99.90;;;;;;5112226;28;20168;-50
2023/07/01 04:00:08;;;;;;;13.90;4.40;;;18.80;99.90;;;;;;5112064;28;20538;-50
2023/07/01 04:02:37;;;;;;;7.28;4.22;;;18.80;99.90;;;;;;5111914;28;20153;-50
2023/07/01 04:05:10;;;;;;;9.65;3.50;;;18.70;99.90;;;;;;5113352;28;20168;-50
2023/07/01 04:07:40;;;;;;;6.50;3.90;;;18.80;99.90;;;;;;5116922;28;20206;-50
2023/07/01 04:10:07;;;;;;;6.88;3.53;;;18.80;99.90;;;;;;5116489;28;20710;-50
2023/07/01 04:12:33;;;;;;;8.30;3.25;;;18.80;99.90;;;;;;5116350;28;20172;-49
2023/07/01 04:14:59;;;;;;;10.38;3.63;;;18.70;99.90;;;;;;5115908;28;20300;-50
2023/07/01 04:17:25;;;;;;;9.88;3.17;;;18.80;99.90;;;;;;5116057;28;20531;-50
2023/07/01 04:19:50;;;;;;;7.20;3.60;;;18.80;99.90;;;;;;5116002;28;20168;-50
2023/07/01 04:22:16;;;;;;;4.78;3.75;;;18.80;99.90;;;;;;5116157;28;20638;-50
2023/07/01 04:24:42;;;;;;;6.78;3.88;;;18.80;99.90;;;;;;5115850;28;20672;-49
2023/07/01 04:27:07;;;;;;;12.00;4.60;;;18.90;99.90;;;;;;5116296;28;20161;-50
2023/07/01 04:29:33;;;;;;;10.45;4.18;;;18.90;99.90;;;;;;5115827;28;20173;-50
2023/07/01 04:31:58;;;;;;;6.53;3.97;;;19.00;99.90;;;;;;5115736;28;20244;-49
2023/07/01 04:34:24;;;;;;;12.00;4.72;;;19.00;99.90;;;;;;5115642;28;20240;-50
2023/07/01 04:36:49;;;;;;;10.65;4.15;;;19.00;99.90;;;;;;5115672;28;20173;-50
2023/07/01 04:39:15;;;;;;;8.30;4.30;;;19.00;99.90;;;;;;5115809;28;20161;-50
2023/07/01 04:41:40;;;;;;;12.35;4.60;;;19.00;99.90;;;;;;5097321;28;20255;-49
2023/07/01 04:44:06;;;;;;;15.43;5.43;;;19.10;99.90;;;;;;5116174;28;20165;-50
2023/07/01 04:46:32;;;;;;;14.32;5.22;;;19.10;99.90;;;;;;5115440;28;20643;-50
2023/07/01 04:49:01;;;;;;;9.52;3.80;;;19.10;99.90;;;;;;5115679;28;20168;-50
2023/07/01 04:51:26;;;;;;;8.80;3.72;;;19.00;99.90;;;;;;5115428;28;20625;-49
2023/07/01 04:53:52;;;;;;;5.15;2.97;;;19.00;99.90;;;;;;5115181;28;20207;-49
2023/07/01 04:56:21;;;;;;;8.48;3.42;;;19.10;99.90;;;;;;5115280;28;20161;-49
2023/07/01 04:58:46;;;;;;;6.47;3.30;;;19.10;99.90;;;;;;5115146;28;20153;-49
2023/07/01 05:01:12;;;;;;;5.22;2.95;;;19.10;99.90;;;;;;5115116;28;20675;-49
2023/07/01 05:03:37;;;;;;;4.65;3.03;;;19.10;99.90;;;;;;5115629;28;20639;-50
2023/07/01 05:06:03;;;;;;;13.68;4.32;;;19.10;99.90;;;;;;5115227;28;20172;-50
2023/07/01 05:08:28;;;;;;;13.07;4.55;;;19.10;99.90;;;;;;5115247;28;20172;-50
2023/07/01 05:10:54;;;;;;;11.55;3.72;;;19.10;99.90;;;;;;5114850;28;20569;-50
2023/07/01 05:13:20;;;;;;;7.60;3.53;;;19.10;99.90;;;;;;5115077;28;20529;-50
2023/07/01 05:15:45;;;;;;;10.05;3.80;;;19.10;99.90;;;;;;5114489;28;20172;-49
2023/07/01 05:18:11;;;;;;;8.35;4.22;;;19.10;99.90;;;;;;5114880;28;20230;-49
2023/07/01 05:20:37;;;;;;;10.27;4.28;;;19.10;99.90;;;;;;5115458;28;20179;-50
2023/07/01 05:23:02;;;;;;;6.90;4.00;;;19.20;99.90;;;;;;5114830;28;20165;-49
2023/07/01 05:25:28;;;;;;;11.32;4.05;;;19.30;99.90;;;;;;5114534;28;20639;-49
2023/07/01 05:27:54;;;;;;;9.95;4.20;;;19.20;99.90;;;;;;5115000;28;20696;-49
2023/07/01 05:30:19;;;;;;;10.82;3.92;;;19.20;99.90;;;;;;5114679;28;20247;-49
2023/07/01 05:32:45;;;;;;;12.68;4.03;;;19.20;99.90;;;;;;5114543;28;20256;-49
2023/07/01 05:35:10;;;;;;;5.50;3.67;;;19.30;99.90;;;;;;5114700;28;20215;-49
2023/07/01 05:37:36;;;;;;;13.70;4.85;;;19.40;99.90;;;;;;5114919;28;20241;-49
2023/07/01 05:40:01;;;;;;;7.90;4.07;;;19.60;99.90;;;;;;5114427;28;20255;-49
2023/07/01 05:42:27;;;;;;;11.18;3.90;;;19.70;99.90;;;;;;5114538;28;20202;-49
2023/07/01 05:44:52;;;;;;;6.78;4.07;;;19.80;99.90;;;;;;5114317;28;20628;-50
2023/07/01 05:47:18;;;;;;;9.23;3.78;;;19.70;99.90;;;;;;5114302;28;20161;-49
2023/07/01 05:49:43;;;;;;;9.30;3.78;;;19.50;99.90;;;;;;5114351;28;20172;-50
2023/07/01 05:52:09;;;;;;;7.00;3.60;;;19.40;99.90;;;;;;5114202;28;20241;-49
2023/07/01 05:54:34;;;;;;;7.90;3.58;;;19.40;99.90;;;;;;5114336;28;20250;-50
2023/07/01 05:57:00;;;;;;;7.07;3.72;;;19.40;99.90;;;;;;5114137;28;20612;-50
2023/07/01 05:59:26;;;;;;;7.93;3.17;;;19.30;99.90;;;;;;5114085;28;20171;-50
2023/07/01 06:01:51;;;;;;;8.35;2.88;;;19.20;99.90;;;;;;5113883;28;20244;-50
2023/07/01 06:04:17;;;;;;;5.88;2.35;;;19.20;99.90;;;;;;5114234;28;20185;-50
2023/07/01 06:06:42;;;;;;;8.10;2.67;;;19.20;99.90;;;;;;5114198;28;20572;-50
2023/07/01 06:09:09;;;;;;;6.13;2.40;;;19.10;99.90;;;;;;5114102;28;20161;-49
2023/07/01 06:11:35;;;;;;;6.03;2.70;;;19.10;99.90;;;;;;5114106;28;20167;-49
2023/07/01 06:14:01;;;;;;;3.53;2.47;;;19.00;99.90;;;;;;5113441;28;20204;-49
2023/07/01 06:16:27;;;;;;;7.55;2.30;;;19.00;99.90;;;;;;5113544;28;20733;-49
2023/07/01 06:18:52;;;;;;;10.38;3.38;;;18.80;99.90;;;;;;5113718;28;20171;-49
2023/07/01 06:21:19;;;;;;;7.75;2.50;;;18.80;99.90;;;;;;5113744;28;20165;-49
2023/07/01 06:23:45;;;;;;;10.27;3.00;;;18.60;99.90;;;;;;5113796;28;20180;-48
2023/07/01 06:26:10;;;;;;;4.20;2.45;;;18.50;99.90;;;;;;5113530;28;20229;-48
2023/07/01 06:28:36;;;;;;;5.47;2.17;;;18.50;99.90;;;;;;5113116;28;20180;-49
2023/07/01 06:31:01;;;;;;;5.88;2.60;;;18.50;99.90;;;;;;5113450;28;20218;-49
2023/07/01 06:33:27;;;;;;;6.47;2.92;;;18.40;99.90;;;;;;5113271;28;20200;-49
2023/07/01 06:35:52;;;;;;;8.23;2.67;;;18.60;99.90;;;;;;5113240;28;20266;-49
2023/07/01 06:38:18;;;;;;;9.07;3.08;;;18.40;99.90;;;;;;5113323;28;20165;-49
2023/07/01 06:40:44;;;;;;;3.90;2.35;;;18.40;99.90;;;;;;5112970;28;20164;-48
2023/07/01 06:43:09;;;;;;;4.97;2.63;;;18.40;99.90;;;;;;5113237;28;20214;-49
2023/07/01 06:45:35;;;;;;;10.77;2.83;;;18.40;99.90;;;;;;5113480;28;20526;-49
2023/07/01 06:48:01;;;;;;;4.82;2.40;;;18.50;99.90;;;;;;5113404;28;20161;-49
2023/07/01 06:50:27;;;;;;;3.25;2.35;;;18.40;99.90;;;;;;5113323;28;20173;-49
2023/07/01 06:52:52;;;;;;;4.55;2.13;;;18.40;99.90;;;;;;5113100;28;20693;-49
2023/07/01 06:55:18;;;;;;;5.53;2.42;;;18.40;99.90;;;;;;5112826;28;20200;-49
2023/07/01 06:57:44;;;;;;;5.50;2.15;;;18.60;99.90;;;;;;5112534;28;20182;-48
2023/07/01 07:00:12;;;;;;;9.93;2.42;;;18.40;99.90;;;;;;5112894;28;20175;-49
2023/07/01 07:02:38;;;;;;;3.45;2.08;;;18.60;99.90;;;;;;5113193;28;20168;-49
2023/07/01 07:05:06;;;;;;;8.30;2.20;;;18.50;99.90;;;;;;5113264;28;20675;-50
2023/07/01 07:07:32;;;;;;;2.50;1.98;;;18.60;99.90;;;;;;5094069;28;20190;-49
2023/07/01 07:09:57;;;;;;;5.68;2.10;;;18.60;99.90;;;;;;5112732;28;20216;-48
2023/07/01 07:12:23;;;;;;;3.58;1.92;;;18.70;99.90;;;;;;5112566;28;20164;-48
2023/07/01 07:14:49;;;;;;;3.35;2.30;;;18.70;99.90;;;;;;5112797;28;20315;-48
2023/07/01 07:17:15;;;;;;;5.55;2.80;;;18.70;99.90;;;;;;5112418;28;20208;-47
2023/07/01 07:19:40;;;;;;;4.88;2.88;;;18.80;99.90;;;;;;5112547;28;20172;-49
2023/07/01 07:22:06;;;;;;;6.32;2.72;;;18.80;99.90;;;;;;5094621;28;20173;-49
2023/07/01 07:24:31;;;;;;;10.07;3.30;;;18.70;99.90;;;;;;5094229;28;20227;-50
2023/07/01 07:27:00;;;;;;;5.22;2.80;;;18.60;99.90;;;;;;5112284;28;20165;-49
2023/07/01 07:29:27;;;;;;;9.05;3.08;;;18.60;99.90;;;;;;5112308;28;20184;-49
2023/07/01 07:31:53;;;;;;;5.47;2.92;;;18.70;99.90;;;;;;5111908;28;20243;-49
2023/07/01 07:34:19;;;;;;;5.75;3.65;;;18.50;99.90;;;;;;5112207;28;20204;-48
2023/07/01 07:36:44;;;;;;;5.43;3.70;;;18.80;99.90;;;;;;5112204;28;20171;-47
2023/07/01 07:39:12;;;;;;;6.80;3.50;;;18.80;99.90;;;;;;5112064;28;20173;-47
2023/07/01 07:41:39;;;;;;;7.05;3.17;;;18.70;99.90;;;;;;5112894;28;20169;-47
2023/07/01 07:44:05;;;;;;;10.27;7.28;;;18.60;99.90;;;;;;5112477;28;20165;-47
2023/07/01 07:46:30;;;;;;;4.65;3.30;;;18.80;99.90;;;;;;5112122;28;20301;-47
2023/07/01 07:48:56;;;;;;;6.95;3.28;;;18.90;99.90;;;;;;5112391;28;20188;-48
2023/07/01 07:51:21;;;;;;;7.00;3.25;;;18.80;99.90;;;;;;5112069;28;20705;-48
2023/07/01 07:53:47;;;;;;;5.57;3.15;;;18.80;99.90;;;;;;5112299;28;20193;-47
2023/07/01 07:56:13;;;;;;;6.95;3.15;;;18.70;99.90;;;;;;5112300;28;20219;-48
2023/07/01 07:58:38;;;;;;;8.95;4.20;;;18.80;99.90;;;;;;5112033;28;20255;-47
2023/07/01 08:01:04;;;;;;;6.78;3.80;;;18.90;99.90;;;;;;5112375;28;20168;-47
2023/07/01 08:03:29;;;;;;;7.78;4.43;;;18.90;99.90;;;;;;5111904;28;20177;-48
2023/07/01 08:05:55;;;;;;;7.20;4.15;;;18.80;99.90;;;;;;5111863;28;20165;-47
2023/07/01 08:08:21;;;;;;;9.68;4.35;;;18.80;99.90;;;;;;5111954;28;20164;-48
2023/07/01 08:10:46;;;;;;;10.32;3.88;;;18.80;99.90;;;;;;5111721;28;20741;-48
2023/07/01 08:13:13;;;;;;;9.10;4.75;;;18.80;99.90;;;;;;5111819;28;20575;-48
2023/07/01 08:15:41;;;;;;;10.20;4.18;;;18.90;99.90;;;;;;5111796;28;20168;-48
2023/07/01 08:18:06;;;;;;;10.57;4.10;;;18.80;99.90;;;;;;5094291;28;20161;-47
2023/07/01 08:20:32;;;;;;;5.88;3.33;;;18.90;99.90;;;;;;5111382;28;20172;-47
2023/07/01 08:22:57;;;;;;;8.65;3.83;;;19.00;99.90;;;;;;5111751;28;20636;-48
2023/07/01 08:25:23;;;;;;;7.40;3.20;;;19.20;99.90;;;;;;5111677;28;20246;-47
2023/07/01 08:27:48;;;;;;;4.72;2.55;;;19.10;99.90;;;;;;5111750;28;20172;-51
2023/07/01 08:30:14;;;;;;;4.95;2.92;;;19.00;99.90;;;;;;5111484;28;20202;-52
2023/07/01 08:32:40;;;;;;;8.38;3.28;;;19.20;99.90;;;;;;5111568;28;20197;-52
2023/07/01 08:35:06;;;;;;;5.78;2.83;;;19.30;99.90;;;;;;5111781;28;20204;-52
2023/07/01 08:37:31;;;;;;;5.45;2.72;;;19.30;99.90;;;;;;5111470;28;20184;-52
2023/07/01 08:39:57;;;;;;;7.75;2.45;;;19.40;99.90;;;;;;5110965;28;20722;-52
2023/07/01 08:42:28;;;;;;;6.70;2.72;;;19.40;99.90;;;;;;5111530;28;20620;-52
2023/07/01 08:44:54;;;;;;;3.75;2.20;;;19.50;99.90;;;;;;5111327;28;20175;-52
2023/07/01 08:47:21;;;;;;;8.00;2.63;;;19.60;99.90;;;;;;5111453;28;20167;-52
2023/07/01 08:49:50;;;;;;;6.78;3.45;;;19.60;99.90;;;;;;5111753;28;20177;-52
2023/07/01 08:52:19;;;;;;;8.48;3.47;;;19.50;99.90;;;;;;5114435;28;20217;-52
2023/07/01 08:54:45;;;;;;;7.50;3.30;;;19.40;99.90;;;;;;5115035;28;20200;-52
2023/07/01 08:57:11;;;;;;;9.20;3.65;;;19.60;99.90;;;;;;5115158;28;20163;-52
2023/07/01 08:59:38;;;;;;;6.85;4.00;;;19.60;99.90;;;;;;5115372;28;20169;-52
2023/07/01 09:02:03;;;;;;;8.30;3.83;;;19.60;99.90;;;;;;5115477;28;20643;-52
2023/07/01 09:04:30;;;;;;;9.80;4.40;;;19.60;99.90;;;;;;5115297;28;20181;-52
2023/07/01 09:06:56;;;;;;;5.93;3.65;;;19.40;99.90;;;;;;5115164;28;20247;-52
2023/07/01 09:09:21;;;;;;;9.15;4.32;;;19.40;99.90;;;;;;5114812;28;20358;-52
2023/07/01 09:11:47;;;;;;;8.90;4.90;;;19.10;99.90;;;;;;5114898;28;20168;-52
2023/07/01 09:14:13;;;;;;;7.53;3.63;;;19.20;99.90;;;;;;5114780;28;20278;-52
2023/07/01 09:16:39;;;;;;;6.78;3.85;;;19.20;99.90;;;;;;5114842;28;20242;-52
2023/07/01 09:19:10;;;;;;;7.13;3.53;;;18.90;99.90;;;;;;5115148;28;20168;-52
2023/07/01 09:21:37;;;;;;;5.28;2.67;;;19.20;99.90;;;;;;5115241;28;20599;-52
2023/07/01 09:24:06;;;;;;;5.45;2.88;;;19.10;99.90;;;;;;5097073;28;20194;-52
2023/07/01 09:26:32;;;;;;;8.45;2.42;;;19.20;99.90;;;;;;5114725;28;20259;-52
2023/07/01 09:28:59;;;;;;;4.57;2.90;;;19.30;99.90;;;;;;5114932;28;20179;-52
2023/07/01 09:31:26;;;;;;;4.05;2.47;;;19.30;99.90;;;;;;5114546;28;20529;-52
2023/07/01 09:34:05;;;;;;;1.73;1.20;;;19.20;99.90;;;;;;5114549;28;20737;-52
2023/07/01 09:36:32;;;;;;;1.25;1.15;;;19.10;99.90;;;;;;5114322;28;20176;-52
2023/07/01 09:38:59;;;;;;;0.80;0.80;;;18.80;99.90;;;;;;5114686;28;20537;-52
2023/07/01 09:41:26;;;;;;;0.80;0.80;;;18.40;99.90;;;;;;5114433;28;20172;-52
2023/07/01 09:43:56;;;;;;;3.08;0.98;;;18.50;99.90;;;;;;5114273;28;20192;-52
2023/07/01 09:46:22;;;;;;;1.90;0.77;;;18.70;99.90;;;;;;5114313;28;20636;-52
2023/07/01 09:48:56;;;;;;;1.90;0.70;;;18.80;99.90;;;;;;5114548;28;20598;-52
2023/07/01 09:51:26;;;;;;;1.27;0.80;;;18.80;99.90;;;;;;5114178;28;20168;-52
2023/07/01 09:53:52;;;;;;;0.80;0.45;;;18.80;99.90;;;;;;5113960;28;20787;-53
2023/07/01 09:56:19;;;;;;;0.93;0.60;;;18.90;99.90;;;;;;5114409;28;20566;-52
2023/07/01 09:58:46;;;;;;;0.68;0.68;;;18.90;99.90;;;;;;5114083;28;20156;-52
2023/07/01 10:01:14;;;;;;;2.92;0.60;;;19.10;99.90;;;;;;5114281;28;20185;-52
2023/07/01 10:03:41;;;;;;;2.22;0.90;;;19.00;99.90;;;;;;5112702;28;20156;-52
2023/07/01 10:06:07;;;;;;;1.02;0.60;;;19.10;99.90;;;;;;5114479;28;20157;-52
2023/07/01 10:08:33;;;;;;;1.00;0.80;;;19.20;99.90;;;;;;5114644;28;20184;-52
2023/07/01 10:11:21;;;;;;;1.15;0.75;;;19.20;99.90;;;;;;5113755;28;20216;-52
2023/07/01 10:13:58;;;;;;;0.77;0.50;;;19.20;99.90;;;;;;5113705;28;20207;-53
2023/07/01 10:16:23;;;;;;;2.22;0.88;;;20.20;99.90;;;;;;5113720;28;20208;-52
2023/07/01 10:18:50;;;;;;;0.70;0.60;;;19.20;99.90;;;;;;5113806;28;20192;-52
2023/07/01 10:21:25;;;;;;;1.75;0.73;;;19.20;99.90;;;;;;5113645;28;20184;-53
2023/07/01 10:23:52;;;;;;;5.38;0.90;;;19.30;99.90;;;;;;5113617;28;20171;-52
2023/07/01 10:26:47;;;;;;;3.03;0.65;;;19.20;99.90;;;;;;5113544;28;20629;-53
2023/07/01 10:29:28;;;;;;;1.52;0.70;;;19.30;99.90;;;;;;5113828;28;20634;-52
2023/07/01 10:32:08;;;;;;;1.75;0.55;;;19.40;99.90;;;;;;5113465;28;20183;-53
2023/07/01 10:34:52;;;;;;;1.67;0.75;;;19.30;99.90;;;;;;5113805;28;20279;-53
2023/07/01 10:37:19;;;;;;;0.75;0.60;;;19.20;99.90;;;;;;5113386;28;20172;-53
2023/07/01 10:39:44;;;;;;;2.20;0.65;;;19.10;99.90;;;;;;5113483;28;20192;-53
2023/07/01 10:42:33;;;;;;;4.13;0.82;;;19.20;99.90;;;;;;5113242;28;20612;-53
2023/07/01 10:45:11;;;;;;;1.80;0.80;;;19.10;99.90;;;;;;5113409;28;20199;-53
2023/07/01 10:47:37;;;;;;;1.15;0.73;;;19.20;99.90;;;;;;5113679;28;20196;-53
2023/07/01 10:50:03;;;;;;;0.57;0.57;;;19.20;99.90;;;;;;5113703;28;20587;-53
2023/07/01 10:52:30;;;;;;;1.10;0.43;;;19.10;99.90;;;;;;5113049;28;20247;-53
2023/07/01 10:54:56;;;;;;;1.85;0.82;;;19.10;99.90;;;;;;5113192;28;20232;-53
2023/07/01 10:57:21;;;;;;;1.85;0.80;;;19.10;99.90;;;;;;5112990;28;20196;-53
2023/07/01 10:59:47;;;;;;;0.60;0.60;;;19.10;99.90;;;;;;5112998;28;20161;-53
2023/07/01 11:02:37;;;;;;;1.33;0.80;;;19.00;99.90;;;;;;5113062;28;20214;-53
2023/07/01 11:05:04;;;;;;;5.40;0.82;;;19.10;99.90;;;;;;5113245;28;20156;-53
2023/07/01 11:07:31;;;;;;;1.48;0.70;;;19.10;99.90;;;;;;5113056;28;20171;-52
2023/07/01 11:09:58;;;;;;;0.80;0.80;;;19.20;99.90;;;;;;5112636;28;20307;-53
2023/07/01 11:12:24;;;;;;;0.88;0.70;;;19.20;99.90;;;;;;5112721;28;20164;-53
2023/07/01 11:14:52;;;;;;;0.70;0.68;;;19.30;99.90;;;;;;5112432;28;20268;-53
2023/07/01 11:17:19;;;;;;;2.65;1.02;;;19.30;99.90;;;;;;5112446;28;20225;-53
2023/07/01 11:19:45;;;;;;;1.67;0.80;;;19.30;99.90;;;;;;5112590;28;20168;-53
2023/07/01 11:22:12;;;;;;;1.45;1.10;;;19.30;99.90;;;;;;5112713;28;20171;-53
2023/07/01 11:24:38;;;;;;;1.08;0.77;;;19.30;99.90;;;;;;5112399;28;20168;-53
2023/07/01 11:27:09;;;;;;;1.17;0.80;;;19.40;99.90;;;;;;5112781;28;20160;-53
2023/07/01 11:29:36;;;;;;;0.85;0.85;;;19.50;99.90;;;;;;5112685;28;20225;-53
2023/07/01 11:32:09;;;;;;;1.30;0.80;;;19.40;99.90;;;;;;5113030;28;20165;-53
2023/07/01 11:34:35;;;;;;;1.70;0.77;;;19.40;99.90;;;;;;5112465;28;20675;-52
2023/07/01 11:37:01;;;;;;;2.08;0.93;;;19.40;99.90;;;;;;5112155;28;20171;-53
2023/07/01 11:39:27;;;;;;;1.13;1.00;;;19.40;99.90;;;;;;5112226;28;20805;-53
2023/07/01 11:41:55;;;;;;;3.75;1.40;;;19.30;99.90;;;;;;5111931;28;20164;-53
2023/07/01 11:44:23;;;;;;;3.17;0.90;;;19.40;99.90;;;;;;5093863;28;20631;-53
2023/07/01 11:46:49;;;;;;;2.17;1.23;;;19.40;99.90;;;;;;5112310;28;20180;-53
2023/07/01 11:49:19;;;;;;;3.72;0.98;;;19.40;99.90;;;;;;5112407;28;20199;-53
2023/07/01 11:51:49;;;;;;;1.23;0.95;;;19.40;99.90;;;;;;5112315;28;20255;-53
2023/07/01 11:54:17;;;;;;;3.90;1.00;;;19.40;99.90;;;;;;5112001;28;20651;-53
2023/07/01 11:56:44;;;;;;;2.15;0.90;;;19.40;99.90;;;;;;5112066;28;20247;-53
2023/07/01 11:59:10;;;;;;;1.80;0.80;;;19.50;99.90;;;;;;5112238;28;20177;-53
2023/07/01 12:01:39;;;;;;;0.75;0.75;;;19.60;99.90;;;;;;5112400;28;20258;-53
2023/07/01 12:04:17;;;;;;;0.90;0.90;;;19.60;99.90;;;;;;5112223;28;20263;-53
2023/07/01 12:06:43;;;;;;;1.75;1.05;;;19.70;99.90;;;;;;5112277;28;20181;-53
2023/07/01 12:09:09;;;;;;;1.27;1.17;;;19.70;99.90;;;;;;5112094;28;20255;-53
2023/07/01 12:11:54;;;;;;;1.25;1.08;;;19.70;99.90;;;;;;5112312;28;20200;-53
2023/07/01 12:14:21;;;;;;;1.83;1.10;;;19.80;99.90;;;;;;5111839;28;20200;-53
2023/07/01 12:16:49;;;;;;;1.30;1.00;;;19.80;99.90;;;;;;5112037;28;20165;-53
2023/07/01 12:19:18;;;;;;;4.05;1.23;;;19.80;99.90;;;;;;5111976;28;20168;-53
2023/07/01 12:21:45;;;;;;;1.90;1.25;;;19.90;99.90;;;;;;5111775;28;20196;-53
2023/07/01 12:24:17;;;;;;;1.67;0.80;;;20.00;99.90;;;;;;5111739;28;20169;-53
2023/07/01 12:26:42;;;;;;;1.67;1.35;;;20.00;99.90;;;;;;5114099;28;20524;-53
2023/07/01 12:29:08;;;;;;;2.35;1.02;;;20.00;99.90;;;;;;5115835;28;20176;-53
2023/07/01 12:31:33;;;;;;;2.42;1.27;;;20.10;99.90;;;;;;5116366;28;20180;-53
2023/07/01 12:33:59;;;;;;;1.02;0.93;;;20.10;99.90;;;;;;5097398;28;20200;-53
2023/07/01 12:36:26;;;;;;;2.70;1.00;;;20.10;99.90;;;;;;5115628;28;20172;-53
2023/07/01 12:38:52;;;;;;;1.10;0.98;;;20.10;99.90;;;;;;5115650;28;20559;-53
2023/07/01 12:41:19;;;;;;;3.78;2.05;;;20.10;99.90;;;;;;5115652;28;20632;-53
2023/07/01 12:43:47;;;;;;;1.30;1.20;;;20.10;99.90;;;;;;5115490;28;20200;-53
2023/07/01 12:46:13;;;;;;;4.35;1.40;;;20.20;99.90;;;;;;5115592;28;20173;-53